Time;durP1;ratioP1;P1;durP2;ratioP2;P2;SDS_P1;SDS_P2;PMS_P1;PMS_P2;Temp;Humidity;BMP_temperature;BMP_pressure;BME280_temperature;BME280_humidity;BME280_pressure;Samples;Min_cycle;Max_cycle;Signal;HPM_P1;HPM_P2
2021/04/14 00:00:32;;;;;;;10.15;7.55;;;3.70;92.50;;;;;;5092955;28;20563;-39
2021/04/14 00:03:01;;;;;;;8.27;7.05;;;3.70;92.60;;;;;;5092595;28;20623;-39
2021/04/14 00:05:32;;;;;;;8.80;7.90;;;3.60;92.80;;;;;;5092696;28;20260;-39
2021/04/14 00:07:59;;;;;;;8.93;7.70;;;3.50;93.00;;;;;;5092654;28;20642;-39
2021/04/14 00:10:29;;;;;;;10.43;8.25;;;3.40;93.20;;;;;;5092566;28;20293;-39
2021/04/14 00:12:56;;;;;;;9.85;8.85;;;3.40;93.40;;;;;;5092643;28;20289;-39
2021/04/14 00:15:27;;;;;;;11.35;10.15;;;3.30;93.50;;;;;;5092265;28;20670;-39
2021/04/14 00:17:53;;;;;;;9.57;8.57;;;3.30;93.70;;;;;;5092248;28;20218;-41
2021/04/14 00:20:21;;;;;;;14.93;10.10;;;3.30;93.80;;;;;;5091812;28;20305;-40
2021/04/14 00:22:49;;;;;;;12.55;9.88;;;3.30;94.00;;;;;;5092213;28;20217;-40
2021/04/14 00:25:22;;;;;;;10.82;9.80;;;3.30;94.00;;;;;;5091947;28;20318;-40
2021/04/14 00:27:49;;;;;;;10.82;8.75;;;3.30;94.00;;;;;;5091951;28;20543;-40
2021/04/14 00:30:17;;;;;;;9.73;8.65;;;3.30;94.10;;;;;;5092325;28;20604;-40
2021/04/14 00:32:44;;;;;;;11.82;9.23;;;3.40;94.20;;;;;;5092241;28;20237;-40
2021/04/14 00:35:12;;;;;;;9.55;8.52;;;3.50;94.20;;;;;;5092460;28;20256;-40
2021/04/14 00:37:39;;;;;;;11.75;9.57;;;3.40;94.20;;;;;;5091874;28;20268;-40
2021/04/14 00:40:12;;;;;;;9.05;8.15;;;3.40;94.20;;;;;;5092527;28;20301;-39
2021/04/14 00:42:39;;;;;;;9.45;8.43;;;3.50;94.30;;;;;;5092277;28;20293;-39
2021/04/14 00:45:08;;;;;;;9.73;8.27;;;3.50;94.50;;;;;;5091765;28;20237;-39
2021/04/14 00:47:35;;;;;;;8.90;7.95;;;3.50;94.30;;;;;;5092291;28;20293;-39
2021/04/14 00:50:04;;;;;;;9.75;8.20;;;3.50;94.40;;;;;;5091960;28;20702;-39
2021/04/14 00:52:31;;;;;;;8.60;7.70;;;3.50;94.50;;;;;;5091569;28;20241;-39
2021/04/14 00:54:58;;;;;;;9.10;8.20;;;3.50;94.60;;;;;;5091211;28;20412;-39
2021/04/14 00:57:25;;;;;;;9.75;8.13;;;3.50;94.60;;;;;;5091760;28;20230;-39
2021/04/14 00:59:52;;;;;;;10.70;9.45;;;3.50;95.00;;;;;;5091764;28;20268;-39
2021/04/14 01:02:19;;;;;;;9.23;8.38;;;3.60;94.80;;;;;;5092198;28;20202;-39
2021/04/14 01:04:46;;;;;;;9.85;8.77;;;3.70;94.80;;;;;;5091500;28;20317;-39
2021/04/14 01:07:13;;;;;;;10.88;9.73;;;3.80;94.70;;;;;;5091775;28;20244;-39
2021/04/14 01:09:40;;;;;;;9.90;8.77;;;3.90;94.60;;;;;;5091623;28;20293;-39
2021/04/14 01:12:09;;;;;;;11.60;9.15;;;3.90;94.80;;;;;;5091415;28;20301;-39
2021/04/14 01:14:37;;;;;;;9.88;8.85;;;4.00;94.60;;;;;;5092311;28;20285;-39
2021/04/14 01:17:04;;;;;;;10.93;9.77;;;4.00;94.60;;;;;;5092309;28;20202;-39
2021/04/14 01:19:32;;;;;;;11.10;9.15;;;4.00;94.60;;;;;;5092386;28;20240;-39
2021/04/14 01:21:59;;;;;;;11.00;9.80;;;4.00;94.80;;;;;;5092015;28;20664;-39
2021/04/14 01:24:26;;;;;;;11.70;9.63;;;3.90;94.80;;;;;;5092020;28;20705;-39
2021/04/14 01:26:54;;;;;;;11.30;9.68;;;3.70;95.00;;;;;;5091638;28;20325;-39
2021/04/14 01:29:20;;;;;;;10.35;9.23;;;3.70;95.20;;;;;;5092158;28;20217;-39
2021/04/14 01:31:47;;;;;;;9.55;8.55;;;3.60;95.30;;;;;;5092078;28;20306;-39
2021/04/14 01:34:17;;;;;;;10.75;9.40;;;3.40;95.80;;;;;;5091168;28;20203;-39
2021/04/14 01:36:45;;;;;;;12.80;9.65;;;3.30;95.80;;;;;;5091416;28;20253;-40
2021/04/14 01:39:14;;;;;;;13.23;9.57;;;3.20;95.90;;;;;;5091853;28;20294;-39
2021/04/14 01:41:42;;;;;;;11.20;9.40;;;3.10;96.10;;;;;;5091347;28;20710;-39
2021/04/14 01:44:10;;;;;;;10.65;9.60;;;3.10;96.20;;;;;;5091384;28;20240;-39
2021/04/14 01:46:38;;;;;;;14.18;10.40;;;3.10;96.30;;;;;;5091703;28;20236;-39
2021/04/14 01:49:06;;;;;;;10.15;8.82;;;3.10;96.30;;;;;;5092103;28;20259;-39
2021/04/14 01:51:33;;;;;;;11.10;9.95;;;3.10;96.30;;;;;;5095741;28;20209;-39
2021/04/14 01:54:01;;;;;;;10.40;9.27;;;3.00;96.40;;;;;;5095575;28;20314;-40
2021/04/14 01:56:29;;;;;;;10.88;9.25;;;3.00;96.50;;;;;;5095466;28;20271;-40
2021/04/14 01:58:56;;;;;;;11.70;9.25;;;3.00;96.50;;;;;;5095689;28;20213;-40
2021/04/14 02:01:23;;;;;;;10.30;9.13;;;3.00;96.60;;;;;;5095733;28;20293;-41
2021/04/14 02:03:50;;;;;;;10.70;9.60;;;2.90;96.70;;;;;;5095478;28;20712;-40
2021/04/14 02:06:18;;;;;;;12.18;9.10;;;2.80;97.20;;;;;;5095265;28;20549;-40
2021/04/14 02:08:45;;;;;;;11.43;8.60;;;2.70;97.00;;;;;;5095458;28;20206;-40
2021/04/14 02:11:15;;;;;;;11.38;8.82;;;2.70;97.20;;;;;;5095300;28;20263;-40
2021/04/14 02:13:44;;;;;;;11.65;10.13;;;2.70;97.20;;;;;;5094280;28;20301;-40
2021/04/14 02:16:13;;;;;;;11.60;9.30;;;2.80;97.30;;;;;;5094819;28;20233;-40
2021/04/14 02:18:40;;;;;;;10.45;9.35;;;2.80;97.30;;;;;;5094784;28;20245;-40
2021/04/14 02:21:07;;;;;;;11.65;9.50;;;2.70;97.40;;;;;;5094921;28;20209;-40
2021/04/14 02:23:37;;;;;;;10.98;9.82;;;2.60;97.50;;;;;;5094864;28;20317;-40
2021/04/14 02:26:07;;;;;;;11.18;9.50;;;2.60;97.70;;;;;;5094831;28;20238;-40
2021/04/14 02:28:34;;;;;;;12.73;9.50;;;2.60;97.70;;;;;;5095094;28;20222;-40
2021/04/14 02:31:03;;;;;;;12.85;11.00;;;2.70;97.70;;;;;;5094744;28;20207;-41
2021/04/14 02:33:30;;;;;;;9.55;8.60;;;2.80;97.60;;;;;;5094819;28;20297;-40
2021/04/14 02:35:57;;;;;;;14.20;9.73;;;2.80;97.60;;;;;;5095092;28;20203;-40
2021/04/14 02:38:25;;;;;;;13.27;9.75;;;2.80;97.50;;;;;;5094714;28;20661;-40
2021/04/14 02:40:52;;;;;;;10.32;9.27;;;2.80;97.50;;;;;;5094847;28;20305;-40
2021/04/14 02:43:20;;;;;;;13.30;9.93;;;2.70;97.60;;;;;;5094613;28;20663;-40
2021/04/14 02:45:47;;;;;;;10.95;8.98;;;2.70;97.70;;;;;;5094594;28;20242;-40
2021/04/14 02:48:15;;;;;;;12.40;10.10;;;2.70;97.80;;;;;;5094616;28;20246;-39
2021/04/14 02:50:43;;;;;;;12.38;10.30;;;2.60;97.90;;;;;;5094660;28;20297;-40
2021/04/14 02:53:10;;;;;;;11.40;9.27;;;2.60;98.00;;;;;;5094690;28;20568;-40
2021/04/14 02:55:38;;;;;;;11.90;9.57;;;2.60;98.00;;;;;;5094631;28;20203;-40
2021/04/14 02:58:05;;;;;;;12.90;9.82;;;2.60;98.10;;;;;;5095468;28;20677;-40
2021/04/14 03:00:33;;;;;;;11.40;10.07;;;2.50;98.30;;;;;;5094086;28;20238;-40
2021/04/14 03:03:00;;;;;;;10.18;9.02;;;2.40;98.40;;;;;;5094917;28;20712;-40
2021/04/14 03:05:31;;;;;;;12.80;10.32;;;2.40;98.60;;;;;;5094361;28;20261;-40
2021/04/14 03:07:58;;;;;;;12.50;10.43;;;2.30;98.80;;;;;;5094321;28;20298;-40
2021/04/14 03:10:27;;;;;;;13.63;10.52;;;2.30;98.90;;;;;;5094233;28;20302;-40
2021/04/14 03:12:54;;;;;;;11.52;10.32;;;2.30;98.90;;;;;;5094008;28;20301;-40
2021/04/14 03:15:23;;;;;;;11.30;9.70;;;2.30;99.00;;;;;;5094270;28;20242;-40
2021/04/14 03:17:50;;;;;;;12.43;10.20;;;2.20;99.00;;;;;;5094213;28;20302;-40
2021/04/14 03:20:18;;;;;;;9.43;8.52;;;2.20;99.10;;;;;;5093884;28;20717;-40
2021/04/14 03:22:46;;;;;;;9.55;8.57;;;2.10;99.20;;;;;;5093994;28;20207;-40
2021/04/14 03:25:14;;;;;;;9.82;8.80;;;2.10;99.30;;;;;;5093817;28;20227;-40
2021/04/14 03:27:41;;;;;;;10.43;9.35;;;2.00;99.30;;;;;;5093534;28;20238;-40
2021/04/14 03:30:09;;;;;;;10.85;9.30;;;2.00;99.40;;;;;;5093716;28;20242;-40
2021/04/14 03:32:37;;;;;;;10.43;9.13;;;2.00;99.50;;;;;;5093741;28;20216;-40
2021/04/14 03:35:06;;;;;;;10.43;9.05;;;2.00;99.50;;;;;;5093745;28;20285;-40
2021/04/14 03:37:33;;;;;;;10.57;9.05;;;2.00;99.50;;;;;;5093558;28;20238;-40
2021/04/14 03:40:01;;;;;;;9.95;8.60;;;2.00;99.60;;;;;;5090602;28;20290;-40
2021/04/14 03:42:28;;;;;;;10.15;9.15;;;1.90;99.60;;;;;;5073437;28;20306;-40
2021/04/14 03:44:57;;;;;;;9.05;7.88;;;1.90;99.70;;;;;;5073345;28;20394;-40
2021/04/14 03:47:24;;;;;;;9.65;7.78;;;1.80;99.80;;;;;;5073271;28;20203;-40
2021/04/14 03:49:51;;;;;;;10.38;7.45;;;1.70;99.90;;;;;;5073092;28;20658;-40
2021/04/14 03:52:19;;;;;;;9.40;7.88;;;1.60;99.90;;;;;;5073158;28;20295;-40
2021/04/14 03:54:46;;;;;;;20.92;12.35;;;1.50;99.90;;;;;;5072873;28;20234;-40
2021/04/14 03:57:15;;;;;;;19.40;14.27;;;1.50;99.90;;;;;;5073184;28;20307;-40
2021/04/14 03:59:42;;;;;;;12.57;8.07;;;1.50;99.90;;;;;;5079558;28;20302;-40
2021/04/14 04:02:09;;;;;;;11.30;9.10;;;1.60;99.90;;;;;;5072598;28;20225;-40
2021/04/14 04:04:36;;;;;;;9.70;8.75;;;1.70;99.90;;;;;;5072192;28;20595;-39
2021/04/14 04:07:03;;;;;;;13.68;9.85;;;1.70;99.90;;;;;;5072381;28;20570;-40
2021/04/14 04:09:30;;;;;;;10.98;9.88;;;1.80;99.90;;;;;;5072275;28;20252;-40
2021/04/14 04:11:57;;;;;;;23.42;15.68;;;1.80;99.90;;;;;;5071989;28;20289;-40
2021/04/14 04:14:28;;;;;;;20.25;15.93;;;1.80;99.90;;;;;;5072567;28;20294;-40
2021/04/14 04:16:55;;;;;;;18.67;12.55;;;1.80;99.90;;;;;;5072514;28;20433;-40
2021/04/14 04:19:22;;;;;;;12.15;10.27;;;1.80;99.90;;;;;;5072418;28;20219;-39
2021/04/14 04:21:49;;;;;;;13.65;9.57;;;1.80;99.90;;;;;;5072140;28;20305;-40
2021/04/14 04:24:16;;;;;;;13.25;9.25;;;1.80;99.90;;;;;;5072500;28;20233;-41
2021/04/14 04:26:43;;;;;;;9.88;8.88;;;1.90;99.90;;;;;;5072276;28;20371;-40
2021/04/14 04:29:10;;;;;;;25.88;16.50;;;1.90;99.90;;;;;;5072420;28;20299;-40
2021/04/14 04:31:38;;;;;;;15.30;10.50;;;1.90;99.90;;;;;;5072479;28;20244;-41
2021/04/14 04:34:05;;;;;;;15.80;11.00;;;1.90;99.90;;;;;;5072412;28;20230;-40
2021/04/14 04:36:32;;;;;;;15.52;11.50;;;1.80;99.90;;;;;;5072328;28;20303;-40
2021/04/14 04:38:59;;;;;;;12.57;11.25;;;1.80;99.90;;;;;;5072406;28;20276;-40
2021/04/14 04:41:26;;;;;;;30.77;12.02;;;1.80;99.90;;;;;;5091984;28;20242;-40
2021/04/14 04:43:53;;;;;;;16.65;9.68;;;1.80;99.90;;;;;;5092517;28;20210;-40
2021/04/14 04:46:20;;;;;;;12.32;10.35;;;1.90;99.90;;;;;;5092282;28;20301;-40
2021/04/14 04:48:48;;;;;;;13.27;10.10;;;1.90;99.90;;;;;;5092009;28;20760;-41
2021/04/14 04:51:15;;;;;;;12.70;9.80;;;1.90;99.90;;;;;;5092312;28;20629;-41
2021/04/14 04:53:42;;;;;;;13.60;10.05;;;1.90;99.90;;;;;;5092167;28;20663;-41
2021/04/14 04:56:09;;;;;;;13.07;9.95;;;1.90;99.90;;;;;;5092397;28;20685;-40
2021/04/14 04:58:35;;;;;;;15.00;10.75;;;1.90;99.90;;;;;;5092173;28;20305;-40
2021/04/14 05:01:03;;;;;;;13.77;10.20;;;2.00;99.90;;;;;;5092190;28;20275;-41
2021/04/14 05:03:30;;;;;;;15.02;10.90;;;2.10;99.90;;;;;;5092157;28;20291;-40
2021/04/14 05:06:00;;;;;;;12.70;9.75;;;2.20;99.90;;;;;;5092005;28;20257;-40
2021/04/14 05:08:28;;;;;;;14.63;9.90;;;2.20;99.90;;;;;;5092273;28;20215;-40
2021/04/14 05:10:56;;;;;;;14.85;10.05;;;2.20;99.90;;;;;;5092118;28;20260;-41
2021/04/14 05:13:23;;;;;;;13.82;11.00;;;2.10;99.90;;;;;;5092190;28;20246;-40
2021/04/14 05:15:50;;;;;;;11.15;8.73;;;2.20;99.90;;;;;;5093015;28;20211;-41
2021/04/14 05:18:18;;;;;;;11.95;9.52;;;2.10;99.90;;;;;;5093271;28;20273;-41
2021/04/14 05:20:45;;;;;;;16.00;9.98;;;2.20;99.90;;;;;;5092793;28;20638;-41
2021/04/14 05:23:13;;;;;;;10.70;8.65;;;2.40;99.90;;;;;;5093885;28;20210;-41
2021/04/14 05:25:44;;;;;;;10.75;9.50;;;2.50;99.60;;;;;;5096570;28;20237;-41
2021/04/14 05:28:14;;;;;;;16.13;9.40;;;2.50;99.50;;;;;;5097222;28;20236;-41
2021/04/14 05:30:41;;;;;;;8.48;7.65;;;2.60;99.50;;;;;;5096120;28;20593;-41
2021/04/14 05:33:11;;;;;;;13.07;8.77;;;2.70;99.30;;;;;;5095489;28;20224;-41
2021/04/14 05:35:38;;;;;;;8.18;6.47;;;2.90;99.00;;;;;;5096402;28;20234;-40
2021/04/14 05:38:06;;;;;;;8.50;7.05;;;2.90;98.50;;;;;;5095840;28;20740;-40
2021/04/14 05:40:34;;;;;;;9.32;6.78;;;2.90;98.30;;;;;;5096676;28;20210;-40
2021/04/14 05:43:13;;;;;;;12.65;7.40;;;2.90;98.30;;;;;;5096953;28;20249;-40
2021/04/14 05:45:40;;;;;;;8.75;7.57;;;2.80;98.20;;;;;;5096421;28;20266;-41
2021/04/14 05:48:07;;;;;;;8.70;6.82;;;2.80;98.30;;;;;;5095764;28;20213;-41
2021/04/14 05:50:34;;;;;;;7.50;6.78;;;2.80;98.30;;;;;;5095451;28;20245;-41
2021/04/14 05:53:01;;;;;;;10.27;6.07;;;2.90;98.20;;;;;;5095800;28;20290;-41
2021/04/14 05:55:28;;;;;;;7.03;6.05;;;3.00;97.90;;;;;;5095600;28;20624;-42
2021/04/14 05:57:56;;;;;;;9.35;6.60;;;3.10;97.60;;;;;;5095697;28;20206;-42
2021/04/14 06:00:23;;;;;;;11.27;7.35;;;3.20;97.50;;;;;;5095547;28;20302;-41
2021/04/14 06:02:50;;;;;;;8.68;6.22;;;3.20;97.40;;;;;;5095680;28;20625;-41
2021/04/14 06:05:19;;;;;;;9.20;6.60;;;3.20;97.30;;;;;;5095575;28;20350;-40
2021/04/14 06:07:46;;;;;;;9.90;6.55;;;3.30;97.20;;;;;;5095397;28;20286;-41
2021/04/14 06:10:15;;;;;;;9.57;6.97;;;3.40;96.90;;;;;;5095130;28;20217;-41
2021/04/14 06:12:42;;;;;;;8.60;5.97;;;3.50;96.70;;;;;;5095509;28;20248;-41
2021/04/14 06:15:13;;;;;;;7.45;6.53;;;3.60;96.60;;;;;;5095417;28;20268;-41
2021/04/14 06:17:40;;;;;;;7.57;6.60;;;3.80;96.40;;;;;;5095019;28;20614;-41
2021/04/14 06:20:09;;;;;;;8.75;7.13;;;3.80;96.10;;;;;;5094812;28;20214;-40
2021/04/14 06:22:36;;;;;;;7.13;6.43;;;3.80;96.00;;;;;;5095074;28;20257;-40
2021/04/14 06:25:06;;;;;;;7.97;5.95;;;3.90;96.10;;;;;;5095263;28;20237;-41
2021/04/14 06:27:37;;;;;;;7.50;6.40;;;3.90;96.10;;;;;;5094960;28;20245;-43
2021/04/14 06:30:06;;;;;;;8.75;6.93;;;4.00;96.00;;;;;;5095239;28;20233;-44
2021/04/14 06:32:34;;;;;;;7.18;6.05;;;4.10;95.80;;;;;;5095134;28;20665;-43
2021/04/14 06:35:01;;;;;;;7.70;6.38;;;4.20;95.50;;;;;;5094262;28;20203;-43
2021/04/14 06:37:28;;;;;;;10.50;6.78;;;4.40;95.40;;;;;;5095179;28;20219;-42
2021/04/14 06:40:13;;;;;;;6.63;5.93;;;4.60;95.00;;;;;;5094924;28;20677;-43
2021/04/14 06:42:50;;;;;;;11.07;6.78;;;4.90;94.60;;;;;;5094910;28;20238;-41
2021/04/14 06:45:21;;;;;;;8.70;7.25;;;5.10;94.20;;;;;;5094524;28;20307;-42
2021/04/14 06:48:21;;;;;;;10.45;6.15;;;5.20;93.70;;;;;;5094345;28;20657;-41
2021/04/14 06:50:52;;;;;;;9.20;6.03;;;5.30;93.20;;;;;;5094340;28;20737;-41
2021/04/14 06:53:25;;;;;;;7.65;5.97;;;5.40;93.20;;;;;;5094199;28;20718;-40
2021/04/14 06:55:58;;;;;;;5.82;5.03;;;5.50;93.00;;;;;;5094252;28;20228;-41
2021/04/14 06:58:36;;;;;;;7.32;6.03;;;5.60;92.90;;;;;;5094462;28;20642;-41
2021/04/14 07:01:07;;;;;;;8.68;5.82;;;5.70;92.60;;;;;;5094353;28;20237;-41
2021/04/14 07:03:44;;;;;;;6.72;4.95;;;5.90;92.40;;;;;;5093866;28;20618;-40
2021/04/14 07:06:17;;;;;;;7.50;4.25;;;5.90;92.10;;;;;;5093620;28;20329;-40
2021/04/14 07:09:13;;;;;;;11.00;5.32;;;6.10;91.90;;;;;;5093726;28;20214;-41
2021/04/14 07:11:41;;;;;;;4.80;4.35;;;6.10;91.50;;;;;;5093863;28;20267;-41
2021/04/14 07:14:10;;;;;;;5.72;4.93;;;6.00;91.40;;;;;;5093681;28;20250;-41
2021/04/14 07:17:01;;;;;;;7.57;5.32;;;6.00;91.50;;;;;;5093701;28;20246;-41
2021/04/14 07:19:42;;;;;;;8.23;4.97;;;6.00;91.40;;;;;;5093622;28;20206;-40
2021/04/14 07:22:19;;;;;;;8.02;4.20;;;6.10;91.30;;;;;;5094143;28;20206;-40
2021/04/14 07:24:51;;;;;;;7.35;3.95;;;6.20;91.10;;;;;;5093334;28;20313;-39
2021/04/14 07:27:24;;;;;;;6.32;3.97;;;6.40;90.90;;;;;;5093321;28;20739;-39
2021/04/14 07:29:59;;;;;;;6.72;3.90;;;6.60;90.60;;;;;;5093796;28;20226;-43
2021/04/14 07:32:36;;;;;;;6.97;4.18;;;6.70;90.30;;;;;;5093527;28;20206;-40
2021/04/14 07:35:13;;;;;;;5.18;4.35;;;7.00;89.80;;;;;;5093581;28;20275;-41
2021/04/14 07:37:50;;;;;;;7.57;4.18;;;7.20;89.10;;;;;;5093424;28;20271;-40
2021/04/14 07:40:22;;;;;;;7.15;3.80;;;7.40;88.10;;;;;;5094234;28;20213;-41
2021/04/14 07:43:00;;;;;;;11.75;4.15;;;7.40;87.60;;;;;;5093650;28;20221;-45
2021/04/14 07:45:31;;;;;;;5.38;4.75;;;7.20;88.00;;;;;;5093180;28;20762;-41
2021/04/14 07:48:03;;;;;;;5.40;4.20;;;7.10;88.70;;;;;;5092353;28;20674;-42
2021/04/14 07:50:36;;;;;;;4.78;4.10;;;7.20;88.60;;;;;;5093272;28;20238;-42
2021/04/14 07:53:14;;;;;;;9.02;3.88;;;7.30;88.50;;;;;;5093386;28;20214;-42
2021/04/14 07:55:41;;;;;;;7.95;3.92;;;7.50;87.80;;;;;;5093185;28;20248;-42
2021/04/14 07:58:10;;;;;;;8.18;4.10;;;7.70;87.00;;;;;;5093129;28;20253;-43
2021/04/14 08:00:40;;;;;;;5.22;4.18;;;7.80;86.70;;;;;;5093062;28;20244;-42
2021/04/14 08:03:17;;;;;;;6.03;4.30;;;7.70;86.50;;;;;;5092992;28;20305;-42
2021/04/14 08:05:45;;;;;;;5.78;4.80;;;7.60;86.90;;;;;;5093148;28;20312;-44
2021/04/14 08:08:20;;;;;;;4.55;4.15;;;7.60;87.60;;;;;;5093205;28;20215;-43
2021/04/14 08:11:03;;;;;;;8.40;4.25;;;7.70;86.90;;;;;;5093397;28;20206;-43
2021/04/14 08:13:37;;;;;;;9.45;7.38;;;7.90;86.40;;;;;;5093200;28;20614;-43
2021/04/14 08:16:17;;;;;;;10.23;5.05;;;8.10;85.90;;;;;;5093731;28;20291;-42
2021/04/14 08:18:53;;;;;;;6.60;3.90;;;8.30;85.10;;;;;;5092911;28;20206;-42
2021/04/14 08:21:31;;;;;;;7.18;3.83;;;8.40;85.40;;;;;;5092697;28;20229;-42
2021/04/14 08:24:16;;;;;;;11.25;4.55;;;8.50;83.80;;;;;;5092691;28;20211;-42
2021/04/14 08:26:53;;;;;;;4.03;3.63;;;8.60;83.40;;;;;;5092423;28;20329;-42
2021/04/14 08:29:21;;;;;;;5.57;3.85;;;8.70;82.90;;;;;;5092681;28;20253;-42
2021/04/14 08:31:49;;;;;;;5.25;3.63;;;8.80;82.90;;;;;;5092537;28;20240;-42
2021/04/14 08:34:21;;;;;;;4.55;3.25;;;9.00;83.10;;;;;;5092874;28;20206;-43
2021/04/14 08:36:56;;;;;;;5.00;4.07;;;9.10;81.50;;;;;;5092689;28;20241;-42
2021/04/14 08:39:28;;;;;;;7.68;4.22;;;9.20;80.90;;;;;;5092704;28;20634;-42
2021/04/14 08:42:11;;;;;;;4.90;4.20;;;9.30;80.70;;;;;;5092522;28;20217;-42
2021/04/14 08:44:41;;;;;;;5.47;4.18;;;9.30;80.30;;;;;;5092424;28;20230;-44
2021/04/14 08:47:11;;;;;;;7.35;5.00;;;9.30;80.20;;;;;;5092193;28;20206;-43
2021/04/14 08:49:39;;;;;;;6.38;3.97;;;9.20;80.40;;;;;;5092474;28;20293;-44
2021/04/14 08:52:28;;;;;;;4.28;3.92;;;9.10;80.60;;;;;;5092266;28;20545;-48
2021/04/14 08:54:58;;;;;;;5.88;4.40;;;9.10;80.30;;;;;;5092111;28;20293;-45
2021/04/14 08:57:25;;;;;;;6.38;3.70;;;9.00;80.40;;;;;;5092374;28;20240;-44
2021/04/14 08:59:52;;;;;;;6.13;4.35;;;8.90;80.50;;;;;;5091769;28;20214;-45
2021/04/14 09:02:20;;;;;;;7.65;4.25;;;8.80;79.80;;;;;;5092214;28;20305;-43
2021/04/14 09:04:50;;;;;;;4.78;3.63;;;8.90;80.00;;;;;;5092034;28;20305;-42
2021/04/14 09:07:24;;;;;;;5.22;3.72;;;9.20;79.30;;;;;;5092088;28;20294;-43
2021/04/14 09:09:53;;;;;;;7.00;3.80;;;9.50;78.30;;;;;;5092046;28;20249;-43
2021/04/14 09:12:31;;;;;;;5.03;3.88;;;9.80;77.40;;;;;;5092131;28;20321;-41
2021/04/14 09:15:04;;;;;;;6.15;4.00;;;10.10;76.10;;;;;;5092046;28;20237;-40
2021/04/14 09:17:31;;;;;;;5.20;2.95;;;10.20;75.60;;;;;;5091725;28;20295;-40
2021/04/14 09:20:10;;;;;;;3.17;2.88;;;10.10;75.20;;;;;;5091890;28;20672;-41
2021/04/14 09:22:38;;;;;;;3.83;2.75;;;10.10;73.70;;;;;;5091868;28;20297;-41
2021/04/14 09:25:19;;;;;;;3.85;2.92;;;10.00;73.00;;;;;;5091751;28;20238;-40
2021/04/14 09:27:50;;;;;;;2.88;2.50;;;9.80;71.90;;;;;;5091548;28;20242;-44
2021/04/14 09:30:34;;;;;;;4.97;2.65;;;9.70;72.10;;;;;;5092121;28;20354;-41
2021/04/14 09:33:18;;;;;;;3.53;3.05;;;9.80;72.00;;;;;;5092024;28;20224;-41
2021/04/14 09:36:00;;;;;;;4.78;3.10;;;9.80;71.60;;;;;;5091773;28;20613;-41
2021/04/14 09:38:44;;;;;;;7.28;4.60;;;9.80;70.90;;;;;;5091892;28;20215;-41
2021/04/14 09:41:32;;;;;;;5.80;3.17;;;9.90;70.80;;;;;;5091714;28;20721;-41
2021/04/14 09:44:12;;;;;;;6.63;4.10;;;10.00;70.50;;;;;;5091753;28;20743;-43
2021/04/14 09:47:33;;;;;;;4.05;2.78;;;10.10;70.40;;;;;;5091888;28;20206;-43
2021/04/14 09:50:15;;;;;;;5.05;3.22;;;10.20;70.00;;;;;;5096312;28;20221;-46
2021/04/14 09:52:51;;;;;;;4.22;3.40;;;10.20;70.20;;;;;;5091649;28;20663;-44
2021/04/14 09:55:45;;;;;;;6.68;3.58;;;10.40;70.00;;;;;;5091928;28;20211;-41
2021/04/14 09:58:21;;;;;;;4.63;2.72;;;10.40;70.00;;;;;;5091710;28;20207;-43
2021/04/14 10:00:54;;;;;;;6.13;3.08;;;10.40;69.90;;;;;;5091678;28;20305;-40
2021/04/14 10:03:27;;;;;;;3.63;2.53;;;10.50;69.70;;;;;;5091475;28;20246;-41
2021/04/14 10:05:57;;;;;;;3.15;2.40;;;10.60;69.60;;;;;;5090949;28;20392;-41
2021/04/14 10:08:25;;;;;;;4.25;2.15;;;10.70;66.60;;;;;;5091456;28;20298;-42
2021/04/14 10:10:52;;;;;;;2.30;2.10;;;10.60;66.50;;;;;;5093166;28;20234;-45
2021/04/14 10:13:20;;;;;;;3.10;2.35;;;10.60;65.60;;;;;;5095312;28;20238;-43
2021/04/14 10:15:49;;;;;;;5.35;3.05;;;10.60;64.90;;;;;;5095091;28;20230;-42
2021/04/14 10:18:22;;;;;;;5.90;2.53;;;10.60;64.60;;;;;;5095169;28;20709;-41
2021/04/14 10:20:49;;;;;;;3.50;3.15;;;10.70;63.80;;;;;;5095012;28;20673;-42
2021/04/14 10:23:19;;;;;;;5.40;3.45;;;10.80;63.80;;;;;;5095176;28;20285;-42
2021/04/14 10:25:47;;;;;;;5.80;3.55;;;10.90;62.90;;;;;;5094706;28;20238;-44
2021/04/14 10:28:21;;;;;;;4.32;3.08;;;11.10;62.40;;;;;;5095003;28;20207;-43
2021/04/14 10:30:51;;;;;;;4.15;2.78;;;11.20;61.80;;;;;;5095101;28;20297;-42
2021/04/14 10:33:22;;;;;;;8.18;2.97;;;11.30;61.60;;;;;;5094798;28;20217;-42
2021/04/14 10:35:51;;;;;;;4.57;2.35;;;11.30;61.20;;;;;;5094828;28;20234;-42
2021/04/14 10:38:28;;;;;;;3.55;2.50;;;11.40;60.20;;;;;;5094785;28;20697;-44
2021/04/14 10:40:56;;;;;;;3.42;2.60;;;11.50;59.70;;;;;;5094507;28;20274;-45
2021/04/14 10:43:27;;;;;;;3.20;2.72;;;11.60;59.70;;;;;;5094851;28;20302;-44
2021/04/14 10:45:59;;;;;;;3.55;2.78;;;11.80;58.80;;;;;;5094477;28;20785;-44
2021/04/14 10:48:27;;;;;;;3.60;2.30;;;11.90;58.30;;;;;;5094438;28;20285;-43
2021/04/14 10:51:04;;;;;;;2.97;2.17;;;12.00;58.00;;;;;;5094337;28;20620;-43
2021/04/14 10:53:35;;;;;;;3.90;2.63;;;12.00;56.90;;;;;;5094305;28;20310;-42
2021/04/14 10:56:02;;;;;;;3.65;2.35;;;12.00;57.30;;;;;;5094226;28;20332;-43
2021/04/14 10:58:31;;;;;;;2.30;2.05;;;12.00;57.00;;;;;;5094330;28;20301;-46
2021/04/14 11:01:10;;;;;;;4.20;2.40;;;11.90;56.00;;;;;;5094297;28;20256;-42
2021/04/14 11:03:38;;;;;;;2.40;2.00;;;11.70;55.40;;;;;;5094690;28;20249;-53
2021/04/14 11:06:06;;;;;;;3.28;2.35;;;11.50;55.90;;;;;;5094536;28;20239;-45
2021/04/14 11:08:34;;;;;;;4.63;2.85;;;11.50;57.30;;;;;;5093933;28;20562;-43
2021/04/14 11:11:02;;;;;;;3.95;3.20;;;11.60;57.90;;;;;;5093917;28;20878;-42
2021/04/14 11:13:34;;;;;;;3.45;2.42;;;11.60;58.70;;;;;;5094022;28;20214;-44
2021/04/14 11:16:01;;;;;;;4.30;2.33;;;11.40;59.00;;;;;;5093741;28;20242;-43
2021/04/14 11:18:34;;;;;;;4.43;2.60;;;11.20;59.90;;;;;;5093988;28;20210;-42
2021/04/14 11:21:08;;;;;;;3.50;3.00;;;11.00;60.40;;;;;;5093696;28;20645;-41
2021/04/14 11:23:38;;;;;;;4.30;2.53;;;10.90;60.60;;;;;;5093800;28;20263;-41
2021/04/14 11:26:08;;;;;;;3.50;3.10;;;10.80;61.10;;;;;;5093511;28;20330;-43
2021/04/14 11:28:42;;;;;;;3.08;2.78;;;10.70;61.30;;;;;;5093782;28;20226;-42
2021/04/14 11:31:11;;;;;;;4.10;2.50;;;10.60;61.50;;;;;;5093519;28;20238;-42
2021/04/14 11:33:40;;;;;;;5.40;3.15;;;10.40;61.90;;;;;;5093031;28;20246;-42
2021/04/14 11:36:20;;;;;;;5.00;2.70;;;10.40;62.40;;;;;;5093394;28;20199;-43
2021/04/14 11:38:58;;;;;;;6.05;3.25;;;10.40;62.60;;;;;;5093438;28;20211;-43
2021/04/14 11:41:31;;;;;;;5.82;2.72;;;10.40;62.60;;;;;;5093238;28;20293;-42
2021/04/14 11:44:00;;;;;;;6.82;3.42;;;10.30;62.80;;;;;;5093418;28;20221;-41
2021/04/14 11:46:34;;;;;;;4.90;2.42;;;10.10;63.40;;;;;;5092994;28;20222;-41
2021/04/14 11:49:04;;;;;;;3.70;3.13;;;9.80;64.30;;;;;;5095504;28;20518;-43
2021/04/14 11:51:34;;;;;;;3.00;2.53;;;9.50;65.10;;;;;;5093225;28;20234;-43
2021/04/14 11:54:05;;;;;;;4.35;2.92;;;9.40;65.80;;;;;;5093219;28;20289;-42
2021/04/14 11:56:42;;;;;;;5.50;2.80;;;9.20;66.30;;;;;;5093211;28;20211;-43
2021/04/14 11:59:23;;;;;;;4.32;3.15;;;9.40;66.70;;;;;;5093051;28;20242;-43
2021/04/14 12:01:56;;;;;;;3.10;2.72;;;9.60;65.40;;;;;;5093005;28;20677;-42
2021/04/14 12:04:24;;;;;;;3.33;2.25;;;9.60;64.70;;;;;;5092828;28;20211;-40
2021/04/14 12:06:52;;;;;;;4.03;2.40;;;9.80;64.40;;;;;;5092359;28;20425;-39
2021/04/14 12:09:19;;;;;;;2.60;2.20;;;9.90;63.90;;;;;;5092700;28;20237;-43
2021/04/14 12:12:01;;;;;;;3.83;2.70;;;10.10;62.30;;;;;;5092868;28;20207;-42
2021/04/14 12:14:29;;;;;;;4.45;2.50;;;10.40;60.00;;;;;;5092735;28;20210;-42
2021/04/14 12:16:56;;;;;;;5.38;3.05;;;10.40;59.90;;;;;;5092614;28;20572;-43
2021/04/14 12:19:23;;;;;;;3.92;2.42;;;10.50;60.40;;;;;;5092769;28;20203;-42
2021/04/14 12:21:50;;;;;;;4.65;3.13;;;10.60;59.90;;;;;;5092717;28;20294;-46
2021/04/14 12:24:17;;;;;;;3.90;2.97;;;10.70;59.10;;;;;;5092708;28;20249;-42
2021/04/14 12:26:45;;;;;;;4.60;2.60;;;10.50;59.70;;;;;;5092434;28;20273;-44
2021/04/14 12:29:12;;;;;;;5.15;3.33;;;10.40;60.50;;;;;;5092520;28;20215;-43
2021/04/14 12:31:39;;;;;;;2.58;2.38;;;10.40;60.40;;;;;;5092500;28;20246;-43
2021/04/14 12:34:07;;;;;;;3.50;2.10;;;10.70;59.70;;;;;;5091856;28;20246;-43
2021/04/14 12:36:34;;;;;;;2.55;2.30;;;10.80;58.70;;;;;;5092452;28;20285;-43
2021/04/14 12:39:02;;;;;;;2.95;2.10;;;10.70;57.80;;;;;;5095014;28;20249;-43
2021/04/14 12:41:29;;;;;;;2.22;1.98;;;10.60;57.20;;;;;;5092719;28;20210;-43
2021/04/14 12:43:56;;;;;;;2.42;2.22;;;10.60;57.50;;;;;;5093733;28;20694;-43
2021/04/14 12:46:23;;;;;;;3.75;2.22;;;10.60;57.70;;;;;;5092146;28;20317;-43
2021/04/14 12:48:51;;;;;;;4.78;3.20;;;10.70;57.50;;;;;;5092304;28;20242;-42
2021/04/14 12:51:27;;;;;;;3.03;2.28;;;10.70;56.80;;;;;;5094139;28;20248;-43
2021/04/14 12:54:06;;;;;;;2.17;2.00;;;10.70;56.70;;;;;;5093144;28;20231;-42
2021/04/14 12:56:36;;;;;;;2.65;2.25;;;10.70;57.00;;;;;;5093382;28;20206;-42
2021/04/14 12:59:15;;;;;;;3.38;2.72;;;10.80;56.90;;;;;;5094325;28;20267;-43
2021/04/14 13:01:43;;;;;;;3.85;2.42;;;11.20;55.90;;;;;;5093953;28;20228;-43
2021/04/14 13:04:17;;;;;;;3.90;2.65;;;11.30;55.50;;;;;;5094883;28;20669;-42
2021/04/14 13:06:48;;;;;;;2.45;2.25;;;11.50;55.10;;;;;;5093804;28;20491;-42